.
WxDataArchive / Data Records for 2012-02-23
2012-02-22 February 2012 2012-02-24

Data Records for Thursday, 23 February 2012

Time	Temp	Chill	HIndex	Humid	Dewpt	 Wind 	HiWind	WindDir	Rain 	Barom 
-----	----	-----	------	-----	-----	------	------	-------	-----	----- 
00:00	35.6	35.6	35.6	94	34.0	0	2	225	0.00	29.456 
00:05	35.6	35.6	35.6	94	34.0	0	2	225	0.00	29.456 
00:10	35.6	35.6	35.6	94	34.0	0	2	225	0.00	29.456 
00:15	35.6	35.6	35.6	95	34.3	0	3	248	0.00	29.455 
00:20	35.6	35.6	35.6	95	34.3	0	1	248	0.00	29.455 
00:25	35.6	35.6	35.6	95	34.3	0	3	248	0.00	29.455 
00:30	35.6	35.6	35.6	95	34.3	0	1	248	0.00	29.455 
00:35	35.6	35.6	35.6	95	34.3	0	2	248	0.00	29.455 
00:40	35.6	35.6	35.6	95	34.3	0	2	248	0.00	29.455 
00:45	35.6	35.6	35.6	95	34.3	0	2	248	0.00	29.454 
00:50	35.6	35.6	35.6	95	34.3	0	2	248	0.00	29.454 
00:55	35.6	35.6	35.6	95	34.3	0	1	248	0.00	29.454 
01:00	35.6	35.6	35.6	95	34.3	0	1	248	0.00	29.459 
01:05	35.5	35.5	35.5	95	34.2	0	1	248	0.00	29.459 
01:10	35.5	35.5	35.5	95	34.2	0	1	248	0.00	29.459 
01:15	35.3	35.3	35.3	95	34.0	0	1	248	0.00	29.466 
01:20	35.3	35.3	35.3	95	34.0	0	1	248	0.00	29.466 
01:25	35.3	35.3	35.3	95	34.0	0	1	248	0.00	29.466 
01:30	35.3	35.3	35.3	95	34.0	0	1	248	0.00	29.469 
01:35	35.3	35.3	35.3	95	34.0	0	1	248	0.00	29.469 
01:40	35.5	35.5	35.5	95	34.2	0	2	248	0.00	29.469 
01:45	35.5	35.5	35.5	95	34.2	0	0	---	0.00	29.468 
01:50	35.5	35.5	35.5	95	34.2	0	0	---	0.00	29.468 
01:55	35.5	35.5	35.5	95	34.2	0	1	248	0.00	29.468 
02:00	35.5	35.5	35.5	95	34.2	0	2	248	0.00	29.469 
02:05	35.5	35.5	35.5	95	34.2	0	1	248	0.00	29.469 
02:10	35.3	35.3	35.3	95	34.0	0	1	248	0.00	29.469 
02:15	35.2	35.2	35.2	95	33.9	0	2	248	0.00	29.477 
02:20	35.2	35.2	35.2	95	33.9	0	1	248	0.00	29.477 
02:25	35.2	35.2	35.2	95	33.9	0	1	248	0.00	29.477 
02:30	35.3	35.3	35.3	95	34.0	0	1	248	0.00	29.478 
02:35	35.3	35.3	35.3	95	34.0	0	0	---	0.00	29.478 
02:40	35.3	35.3	35.3	95	34.0	0	0	---	0.00	29.478 
02:45	35.3	35.3	35.3	95	34.0	0	1	248	0.00	29.487 
02:50	35.3	35.3	35.3	95	34.0	0	1	248	0.00	29.487 
02:55	35.3	35.3	35.3	95	34.0	0	1	248	0.00	29.487 
03:00	35.3	35.3	35.3	95	34.0	0	1	248	0.00	29.485 
03:05	35.3	35.3	35.3	95	34.0	0	2	248	0.00	29.485 
03:10	35.2	35.2	35.2	95	33.9	0	3	248	0.00	29.485 
03:15	35.2	35.2	35.2	95	33.9	1	3	248	0.00	29.501 
03:20	35.2	35.2	35.2	95	33.9	0	2	248	0.00	29.501 
03:25	35.0	35.0	35.0	95	33.7	0	2	248	0.00	29.501 
03:30	35.0	35.0	35.0	95	33.7	0	1	248	0.00	29.493 
03:35	35.0	35.0	35.0	95	33.7	0	1	248	0.00	29.493 
03:40	35.0	35.0	35.0	95	33.7	0	1	248	0.00	29.493 
03:45	35.0	35.0	35.0	95	33.7	0	0	---	0.00	29.503 
03:50	34.9	34.9	34.9	95	33.6	0	1	248	0.00	29.503 
03:55	34.9	34.9	34.9	95	33.6	0	1	248	0.00	29.503 
04:00	34.7	34.7	34.7	95	33.4	0	1	248	0.00	29.504 
04:05	34.6	34.6	34.6	95	33.3	0	1	248	0.00	29.504 
04:10	34.4	34.4	34.4	95	33.1	0	1	248	0.00	29.504 
04:15	34.4	34.4	34.4	95	33.1	0	0	---	0.00	29.511 
04:20	34.1	34.1	34.1	95	32.8	0	0	---	0.00	29.511 
04:25	34.0	34.0	34.0	95	32.7	0	0	---	0.00	29.511 
04:30	33.8	33.8	33.8	95	32.5	0	0	---	0.00	29.518 
04:35	33.5	33.5	33.5	95	32.2	0	0	---	0.00	29.518 
04:40	33.2	33.2	33.2	95	31.9	0	0	---	0.00	29.518 
04:45	32.9	32.9	32.9	95	31.6	0	0	---	0.00	29.525 
04:50	32.7	32.7	32.7	95	31.4	0	0	---	0.00	29.525 
04:55	32.4	32.4	32.4	95	31.1	0	0	---	0.00	29.525 
05:00	32.1	32.1	32.1	95	30.8	0	0	---	0.00	29.536 
05:05	31.8	31.8	31.8	95	30.5	0	0	---	0.00	29.536 
05:10	31.6	31.6	31.6	95	30.3	0	0	---	0.00	29.536 
05:15	31.3	31.3	31.3	95	30.0	0	0	---	0.00	29.541 
05:20	31.0	31.0	31.0	95	29.7	0	0	---	0.00	29.541 
05:25	30.7	30.7	30.7	95	29.4	0	0	---	0.00	29.541 
05:30	30.6	30.6	30.6	95	29.3	0	0	---	0.00	29.546 
05:35	30.3	30.3	30.3	95	29.0	0	0	---	0.00	29.546 
05:40	30.1	30.1	30.1	95	28.8	0	0	---	0.00	29.546 
05:45	30.0	30.0	30.0	95	28.7	0	0	---	0.00	29.548 
05:50	29.8	29.8	29.8	95	28.5	0	0	---	0.00	29.548 
05:55	29.7	29.7	29.7	95	28.4	0	0	---	0.00	29.548 
06:00	29.7	29.7	29.7	95	28.4	0	0	---	0.00	29.554 
06:05	29.7	29.7	29.7	95	28.4	0	0	---	0.00	29.554 
06:10	29.7	29.7	29.7	95	28.4	0	0	---	0.00	29.554 
06:15	29.8	29.8	29.8	95	28.5	0	0	---	0.00	29.560 
06:20	29.8	29.8	29.8	95	28.5	0	0	---	0.00	29.560 
06:25	30.1	30.1	30.1	95	28.8	0	0	---	0.00	29.560 
06:30	30.1	30.1	30.1	95	28.8	0	0	---	0.00	29.561 
06:35	30.4	30.4	30.4	96	29.4	0	0	---	0.00	29.561 
06:40	30.7	30.7	30.7	96	29.7	0	0	---	0.00	29.561 
06:45	30.9	30.9	30.9	96	29.9	0	1	248	0.00	29.565 
06:50	31.0	31.0	31.0	96	30.0	0	0	---	0.00	29.565 
06:55	30.9	30.9	30.9	95	29.6	0	1	248	0.00	29.565 
07:00	30.9	30.9	30.9	95	29.6	0	0	---	0.00	29.573 
07:05	30.9	30.9	30.9	95	29.6	0	0	---	0.00	29.573 
07:10	31.0	31.0	31.0	96	30.0	0	0	---	0.00	29.573 
07:15	31.0	31.0	31.0	96	30.0	0	0	---	0.00	29.579 
07:20	31.2	31.2	31.2	96	30.2	0	0	---	0.00	29.579 
07:25	31.3	31.3	31.3	96	30.3	0	0	---	0.00	29.579 
07:30	31.5	31.5	31.5	96	30.5	0	0	---	0.00	29.591 
07:35	31.5	31.5	31.5	96	30.5	0	1	248	0.00	29.591 
07:40	31.6	31.6	31.6	96	30.6	0	0	---	0.00	29.591 
07:45	31.6	31.6	31.6	96	30.6	0	1	248	0.00	29.593 
07:50	31.6	31.6	31.6	96	30.6	0	0	---	0.00	29.593 
07:55	31.8	31.8	31.8	96	30.8	0	1	248	0.00	29.593 
08:00	31.8	31.8	31.8	96	30.8	0	1	248	0.00	29.593 
08:05	31.6	31.6	31.6	96	30.6	0	2	248	0.00	29.593 
08:10	31.6	31.6	31.6	96	30.6	0	1	248	0.00	29.593 
08:15	31.6	31.6	31.6	96	30.6	0	1	248	0.00	29.593 
08:20	31.8	31.8	31.8	96	30.8	1	3	248	0.00	29.593 
08:25	31.8	31.8	31.8	96	30.8	0	3	135	0.00	29.593 
08:30	31.9	31.9	31.9	96	30.9	0	2	135	0.00	29.598 
08:35	31.9	31.9	31.9	96	30.9	0	2	135	0.00	29.598 
08:40	31.9	31.9	31.9	96	30.9	0	2	135	0.00	29.598 
08:45	32.1	32.1	32.1	96	31.1	0	2	135	0.00	29.603 
08:50	32.2	32.2	32.2	96	31.2	1	3	135	0.00	29.603 
08:55	32.2	32.2	32.2	96	31.2	1	4	135	0.00	29.603 
09:00	32.2	32.2	32.2	96	31.2	1	2	90	0.00	29.604 
09:05	32.4	32.4	32.4	96	31.4	0	2	90	0.00	29.604 
09:10	32.5	32.5	32.5	96	31.5	1	4	90	0.00	29.604 
09:15	32.7	32.7	32.7	96	31.7	0	2	90	0.00	29.600 
09:20	32.8	32.8	32.8	96	31.8	1	2	90	0.00	29.600 
09:25	32.9	32.9	32.9	96	31.9	2	4	90	0.00	29.600 
09:30	33.1	33.1	33.1	96	32.1	2	4	90	0.00	29.598 
09:35	33.1	33.1	33.1	96	32.1	2	4	90	0.00	29.598 
09:40	33.2	33.2	33.2	96	32.2	1	3	90	0.00	29.598 
09:45	33.2	33.2	33.2	96	32.2	2	5	112	0.00	29.597 
09:50	33.4	33.4	33.4	96	32.4	1	6	112	0.00	29.597 
09:55	33.2	33.2	33.2	96	32.2	1	3	112	0.00	29.597 
10:00	33.2	33.2	33.2	96	32.2	2	4	112	0.00	29.606 
10:05	33.2	33.2	33.2	96	32.2	2	5	112	0.00	29.606 
10:10	33.4	33.4	33.4	96	32.4	2	5	90	0.00	29.606 
10:15	33.5	33.5	33.5	96	32.5	1	3	112	0.00	29.607 
10:20	33.5	33.5	33.5	96	32.5	1	3	112	0.00	29.607 
10:25	33.5	33.5	33.5	96	32.5	2	5	90	0.00	29.607 
10:30	33.5	33.5	33.5	96	32.5	2	4	90	0.00	29.607 
10:35	33.7	33.7	33.7	96	32.7	1	3	90	0.00	29.607 
10:40	33.7	33.7	33.7	96	32.7	2	4	90	0.00	29.607 
10:45	33.8	33.8	33.8	96	32.8	1	3	90	0.00	29.612 
10:50	33.8	33.8	33.8	96	32.8	3	5	90	0.00	29.612 
10:55	33.8	33.8	33.8	96	32.8	1	4	112	0.00	29.612 
11:00	34.0	34.0	34.0	96	33.0	1	6	90	0.00	29.618 
11:05	34.0	34.0	34.0	96	33.0	1	4	135	0.00	29.618 
11:10	34.1	34.1	34.1	96	33.1	1	4	90	0.00	29.618 
11:15	34.4	34.4	34.4	96	33.4	2	3	112	0.00	29.615 
11:20	34.7	34.7	34.7	96	33.7	1	3	90	0.00	29.615 
11:25	35.0	35.0	35.0	96	34.0	2	4	112	0.00	29.615 
11:30	35.2	35.2	35.2	96	34.2	1	5	112	0.00	29.621 
11:35	35.3	35.3	35.3	96	34.3	1	4	112	0.00	29.621 
11:40	35.6	35.6	35.6	96	34.6	1	4	90	0.00	29.621 
11:45	35.8	35.8	35.8	96	34.8	0	2	90	0.00	29.634 
11:50	36.0	36.0	36.0	96	35.0	0	2	90	0.00	29.634 
11:55	36.2	36.2	36.2	96	35.2	1	3	68	0.00	29.634 
12:00	36.3	36.3	36.3	96	35.3	1	3	90	0.00	29.639 
12:05	36.3	36.3	36.3	96	35.3	1	3	112	0.00	29.639 
12:10	36.5	36.5	36.5	96	35.5	0	3	112	0.00	29.639 
12:15	36.6	36.6	36.6	96	35.6	1	3	112	0.00	29.636 
12:20	36.8	36.8	36.8	96	35.8	1	3	135	0.00	29.636 
12:25	36.8	36.8	36.8	96	35.8	2	4	112	0.00	29.636 
12:30	36.9	36.9	36.9	96	35.9	1	3	112	0.00	29.632 
12:35	37.0	37.0	37.0	95	35.7	1	3	90	0.00	29.632 
12:40	37.2	37.2	37.2	95	35.9	0	2	90	0.00	29.632 
12:45	37.2	37.2	37.2	95	35.9	1	3	135	0.00	29.626 
12:50	37.3	37.3	37.3	95	36.0	1	3	135	0.00	29.626 
12:55	37.5	37.5	37.5	95	36.2	1	3	135	0.00	29.626 
13:00	37.5	37.5	37.5	94	35.9	3	6	112	0.00	29.605 
13:05	37.5	37.5	37.5	94	35.9	2	5	90	0.00	29.605 
13:10	37.6	37.6	37.6	94	36.0	2	4	90	0.00	29.605 
13:15	37.6	37.6	37.6	94	36.0	2	4	112	0.00	29.586 
13:20	37.8	37.8	37.8	93	36.0	2	5	112	0.00	29.586 
13:25	37.9	37.9	37.9	93	36.1	3	7	90	0.00	29.586 
13:30	38.0	38.0	38.0	93	36.2	2	5	112	0.00	29.574 
13:35	38.2	38.2	38.2	93	36.4	1	4	112	0.00	29.574 
13:40	38.2	38.2	38.2	92	36.1	2	4	112	0.00	29.574 
13:45	38.3	38.3	38.3	92	36.2	2	6	112	0.00	29.582 
13:50	38.5	38.5	38.5	92	36.4	3	5	112	0.00	29.582 
13:55	38.6	38.6	38.6	92	36.5	2	4	112	0.00	29.582 
14:00	38.8	38.8	38.8	92	36.7	2	4	90	0.00	29.578 
14:05	39.1	39.1	39.1	92	37.0	1	3	112	0.00	29.578 
14:10	39.3	39.3	39.3	92	37.2	1	3	112	0.00	29.578 
14:15	39.6	39.6	39.6	92	37.5	1	4	90	0.00	29.582 
14:20	39.6	39.6	39.6	91	37.2	2	4	90	0.00	29.582 
14:25	39.9	39.9	39.9	91	37.5	1	4	90	0.00	29.582 
14:30	40.1	40.1	40.1	91	37.7	1	5	90	0.00	29.575 
14:35	40.2	40.2	40.2	91	37.8	0	2	112	0.00	29.575 
14:40	40.3	40.3	40.3	91	37.9	1	3	135	0.00	29.575 
14:45	40.3	40.3	40.3	91	37.9	1	3	112	0.00	29.572 
14:50	40.3	40.3	40.3	91	37.9	1	3	112	0.00	29.572 
14:55	40.3	40.3	40.3	91	37.9	0	3	112	0.00	29.572 
15:00	40.3	40.3	40.3	91	37.9	0	2	112	0.00	29.557 
15:05	40.5	40.5	40.5	91	38.1	0	2	112	0.00	29.557 
15:10	40.6	40.6	40.6	91	38.2	0	2	112	0.00	29.557 
15:15	40.8	40.8	40.8	91	38.4	0	2	112	0.00	29.556 
15:20	40.8	40.8	40.8	91	38.4	0	3	112	0.00	29.556 
15:25	40.8	40.8	40.8	91	38.4	0	2	135	0.00	29.556 
15:30	40.9	40.9	40.9	91	38.5	0	3	135	0.00	29.556 
15:35	40.9	40.9	40.9	91	38.5	0	2	135	0.00	29.556 
15:40	40.9	40.9	40.9	91	38.5	1	5	135	0.00	29.556 
15:45	40.9	40.9	40.9	90	38.2	1	4	112	0.00	29.538 
15:50	40.9	40.9	40.9	90	38.2	1	3	90	0.00	29.538 
15:55	40.9	40.9	40.9	89	37.9	1	4	90	0.00	29.538 
16:00	41.1	41.1	41.1	89	38.1	1	4	90	0.00	29.538 
16:05	41.1	41.1	41.1	88	37.8	2	4	112	0.00	29.538 
16:10	41.1	41.1	41.1	88	37.8	2	5	112	0.00	29.538 
16:15	41.1	41.1	41.1	87	37.5	3	6	90	0.00	29.531 
16:20	41.1	41.1	41.1	86	37.2	3	5	90	0.00	29.531 
16:25	41.1	41.1	41.1	86	37.2	2	4	90	0.00	29.531 
16:30	41.1	41.1	41.1	86	37.2	2	4	112	0.00	29.526 
16:35	41.1	41.1	41.1	85	36.9	2	5	90	0.00	29.526 
16:40	41.1	41.1	41.1	86	37.2	2	4	112	0.00	29.526 
16:45	41.1	41.1	41.1	86	37.2	3	6	90	0.00	29.510 
16:50	41.1	41.1	41.1	86	37.2	3	9	90	0.00	29.510 
16:55	41.1	38.6	41.1	86	37.2	4	9	90	0.00	29.510 
17:00	41.2	41.2	41.2	86	37.3	3	6	112	0.00	29.504 
17:05	41.1	38.6	41.1	86	37.2	4	11	90	0.00	29.504 
17:10	41.2	41.2	41.2	87	37.6	3	7	112	0.00	29.504 
17:15	41.2	41.2	41.2	87	37.6	3	6	90	0.00	29.492 
17:20	41.2	38.7	41.2	87	37.6	4	9	112	0.00	29.492 
17:25	41.2	41.2	41.2	87	37.6	3	8	112	0.00	29.492 
17:30	41.2	38.7	41.2	87	37.6	4	7	90	0.00	29.484 
17:35	41.2	41.2	41.2	87	37.6	3	7	90	0.00	29.484 
17:40	41.2	38.7	41.2	88	37.9	4	7	90	0.00	29.484 
17:45	41.2	38.7	41.2	88	37.9	4	9	112	0.00	29.497 
17:50	41.2	38.7	41.2	88	37.9	4	9	112	0.00	29.497 
17:55	41.2	38.7	41.2	88	37.9	4	10	112	0.00	29.497 
18:00	41.2	38.7	41.2	88	37.9	4	10	90	0.00	29.512 
18:05	41.2	38.7	41.2	88	37.9	4	7	90	0.00	29.512 
18:10	41.2	38.7	41.2	88	37.9	4	7	90	0.00	29.512 
18:15	41.1	37.8	41.1	88	37.8	5	11	90	0.00	29.505 
18:20	41.1	38.6	41.1	89	38.1	4	7	90	0.00	29.505 
18:25	40.9	40.9	40.9	89	37.9	2	5	112	0.00	29.505 
18:30	40.9	40.9	40.9	89	37.9	2	6	112	0.00	29.510 
18:35	40.8	40.8	40.8	90	38.1	2	7	90	0.00	29.510 
18:40	40.6	40.6	40.6	90	37.9	3	6	112	0.00	29.510 
18:45	40.6	40.6	40.6	90	37.9	2	7	90	0.00	29.510 
18:50	40.5	40.5	40.5	90	37.8	3	7	112	0.00	29.510 
18:55	40.5	40.5	40.5	90	37.8	1	6	112	0.00	29.510 
19:00	40.3	40.3	40.3	90	37.6	1	4	45	0.00	29.510 
19:05	40.2	40.2	40.2	91	37.8	1	6	112	0.00	29.510 
19:10	40.1	40.1	40.1	91	37.7	2	5	112	0.00	29.510 
19:15	40.1	40.1	40.1	91	37.7	1	4	112	0.00	29.511 
19:20	39.9	39.9	39.9	91	37.5	1	5	112	0.00	29.511 
19:25	39.9	39.9	39.9	92	37.8	1	5	112	0.01	29.511 
19:30	39.8	39.8	39.8	92	37.7	1	3	112	0.01	29.510 
19:35	39.6	39.6	39.6	92	37.5	0	3	112	0.01	29.510 
19:40	39.5	39.5	39.5	92	37.4	2	5	112	0.01	29.510 
19:45	39.5	39.5	39.5	92	37.4	1	6	68	0.01	29.495 
19:50	39.3	39.3	39.3	92	37.2	2	10	90	0.01	29.495 
19:55	39.2	39.2	39.2	93	37.3	2	7	112	0.02	29.495 
20:00	39.2	39.2	39.2	93	37.3	2	8	112	0.01	29.497 
20:05	39.1	39.1	39.1	93	37.2	2	10	112	0.00	29.497 
20:10	39.1	39.1	39.1	93	37.2	2	9	158	0.00	29.497 
20:15	38.9	38.9	38.9	93	37.1	3	9	90	0.00	29.486 
20:20	38.9	36.0	38.9	93	37.1	4	9	112	0.01	29.486 
20:25	38.8	38.8	38.8	93	37.0	3	10	112	0.02	29.486 
20:30	38.8	38.8	38.8	93	37.0	2	9	90	0.00	29.508 
20:35	38.8	38.8	38.8	93	37.0	2	11	112	0.01	29.508 
20:40	38.8	38.8	38.8	93	37.0	3	12	112	0.00	29.508 
20:45	38.6	34.8	38.6	93	36.8	5	11	112	0.00	29.489 
20:50	38.6	35.7	38.6	93	36.8	4	11	112	0.00	29.489 
20:55	38.5	35.6	38.5	94	36.9	4	14	112	0.01	29.489 
21:00	38.5	38.5	38.5	94	36.9	3	11	112	0.00	29.478 
21:05	38.5	38.5	38.5	94	36.9	2	7	112	0.00	29.478 
21:10	38.5	38.5	38.5	94	36.9	1	3	90	0.00	29.478 
21:15	38.3	38.3	38.3	94	36.7	2	5	68	0.00	29.488 
21:20	38.3	38.3	38.3	94	36.7	2	9	68	0.01	29.488 
21:25	38.3	38.3	38.3	94	36.7	2	10	112	0.01	29.488 
21:30	38.2	38.2	38.2	94	36.6	2	10	112	0.01	29.496 
21:35	38.0	35.0	38.0	94	36.4	4	9	112	0.01	29.496 
21:40	38.0	38.0	38.0	94	36.4	2	6	112	0.01	29.496 
21:45	37.9	37.9	37.9	94	36.3	2	7	112	0.02	29.494 
21:50	37.8	37.8	37.8	94	36.2	3	9	112	0.01	29.494 
21:55	37.8	37.8	37.8	94	36.2	3	8	135	0.00	29.494 
22:00	37.6	37.6	37.6	94	36.0	2	8	112	0.00	29.495 
22:05	37.5	37.5	37.5	94	35.9	2	7	112	0.01	29.495 
22:10	37.3	34.2	37.3	94	35.7	4	13	112	0.01	29.495 
22:15	37.0	33.9	37.0	94	35.4	4	12	90	0.01	29.484 
22:20	37.0	37.0	37.0	94	35.4	1	9	22	0.00	29.484 
22:25	36.8	36.8	36.8	94	35.2	3	7	112	0.00	29.484 
22:30	36.8	36.8	36.8	94	35.2	2	7	90	0.00	29.484 
22:35	36.6	36.6	36.6	94	35.0	3	13	112	0.00	29.484 
22:40	36.5	32.4	36.5	94	34.9	5	15	112	0.00	29.484 
22:45	36.3	36.3	36.3	94	34.7	2	7	112	0.00	29.493 
22:50	36.2	36.2	36.2	94	34.6	1	5	22	0.01	29.493 
22:55	36.2	36.2	36.2	94	34.6	2	4	90	0.01	29.493 
23:00	36.0	36.0	36.0	94	34.4	2	5	90	0.00	29.480 
23:05	35.9	35.9	35.9	94	34.3	2	8	112	0.00	29.480 
23:10	35.9	35.9	35.9	94	34.3	2	10	112	0.00	29.480 
23:15	35.6	31.3	35.6	94	34.0	5	14	90	0.00	29.467 
23:20	35.5	32.1	35.5	94	33.9	4	11	112	0.00	29.467 
23:25	35.3	31.9	35.3	94	33.7	4	11	90	0.00	29.467 
23:30	35.2	31.8	35.2	94	33.6	4	13	90	0.00	29.479 
23:35	35.2	35.2	35.2	94	33.6	3	7	90	0.00	29.479 
23:40	35.0	35.0	35.0	94	33.5	3	12	112	0.00	29.479 
23:45	34.9	31.4	34.9	94	33.4	4	12	112	0.00	29.467 
23:50	34.9	30.5	34.9	94	33.4	5	12	112	0.00	29.467 
23:55	34.7	34.7	34.7	94	33.2	3	9	90	0.00	29.467 

CoCoRaHS
IN-AL-39
A2 Web Hosting
Creative Commons License
GoDaddy
search engine by freefind advanced

loaded 2018-11-15 06:04:11 • last modified 2010-11-18 10:43:29
Privacy PolicyDisclaimer
• wx.awcolley.com is powered by PmWiki v.2002016 •
• all content (unless otherwise noted) © 2018 A W Colley